createdAt,value
2019-04-06T00:00:35.801Z,99.24
2019-04-06T00:01:35.800Z,99.91
2019-04-06T00:02:35.784Z,99.99
2019-04-06T00:03:35.796Z,99.96
2019-04-06T00:04:35.782Z,99.96
2019-04-06T00:05:35.751Z,99.99
2019-04-06T00:06:35.759Z,99.99
2019-04-06T00:07:35.728Z,99.99
2019-04-06T00:08:35.716Z,99.99
2019-04-06T00:09:35.705Z,99.99
2019-04-06T00:10:35.730Z,99.99
2019-04-06T00:11:35.697Z,99.99
2019-04-06T00:12:35.673Z,99.99
2019-04-06T00:13:35.672Z,99.99
2019-04-06T00:14:35.654Z,99.99
2019-04-06T00:15:35.647Z,99.99
2019-04-06T00:16:35.691Z,99.99
2019-04-06T00:17:35.629Z,99.99
2019-04-06T00:18:35.615Z,99.99
2019-04-06T00:19:35.602Z,99.99
2019-04-06T00:20:35.595Z,99.99
2019-04-06T00:21:35.591Z,99.99
2019-04-06T00:22:35.580Z,99.77
2019-04-06T00:23:35.611Z,99.77
2019-04-06T00:24:35.554Z,99.72
2019-04-06T00:25:43.812Z,99.87
2019-04-06T00:26:36.544Z,99.66
2019-04-06T00:27:35.523Z,99.18
2019-04-06T00:28:35.511Z,99.29
2019-04-06T00:29:35.524Z,98.50
2019-04-06T00:30:35.487Z,99.38
2019-04-06T00:31:35.488Z,99.38
2019-04-06T00:32:35.492Z,99.99
2019-04-06T00:33:35.456Z,99.99
2019-04-06T00:34:35.448Z,99.99
2019-04-06T00:35:35.459Z,99.99
2019-04-06T00:36:35.434Z,99.99
2019-04-06T00:37:35.414Z,99.99
2019-04-06T00:38:35.404Z,99.99
2019-04-06T00:39:35.415Z,99.99
2019-04-06T00:40:35.464Z,99.99
2019-04-06T00:41:35.417Z,99.99
2019-04-06T00:42:35.361Z,99.99
2019-04-06T00:43:35.350Z,99.99
2019-04-06T00:44:35.398Z,99.15
2019-04-06T00:45:35.331Z,99.57
2019-04-06T00:46:35.383Z,99.99
2019-04-06T00:47:35.319Z,99.67
2019-04-06T00:48:35.299Z,99.77
2019-04-06T00:49:35.299Z,99.46
2019-04-06T00:50:35.280Z,99.05
2019-04-06T00:51:35.326Z,99.26
2019-04-06T00:52:35.258Z,99.46
2019-04-06T00:53:35.248Z,99.05
2019-04-06T00:54:35.273Z,99.01
2019-04-06T00:55:35.228Z,98.84
2019-04-06T00:56:35.231Z,98.78
2019-04-06T00:57:35.226Z,99.05
2019-04-06T00:58:35.196Z,99.36
2019-04-06T00:59:35.191Z,99.26
2019-04-06T01:00:35.176Z,99.11
2019-04-06T01:01:36.466Z,99.36
2019-04-06T01:02:35.153Z,98.84
2019-04-06T01:03:35.163Z,98.53
2019-04-06T01:04:35.146Z,98.47
2019-04-06T01:05:35.129Z,98.88
2019-04-06T01:06:35.118Z,98.84
2019-04-06T01:07:35.112Z,99.05
2019-04-06T01:08:35.098Z,99.41
2019-04-06T01:09:35.105Z,99.05
2019-04-06T01:10:35.098Z,99.20
2019-04-06T01:11:35.061Z,99.41
2019-04-06T01:12:35.062Z,99.20
2019-04-06T01:13:35.048Z,99.04
2019-04-06T01:14:35.030Z,99.10
2019-04-06T01:15:35.064Z,99.10
2019-04-06T01:16:35.009Z,99.10
2019-04-06T01:17:35.036Z,99.72
2019-04-06T01:18:34.987Z,99.51
2019-04-06T01:19:35.030Z,99.41
2019-04-06T01:20:34.966Z,99.30
2019-04-06T01:21:34.971Z,99.20
2019-04-06T01:22:35.040Z,99.10
2019-04-06T01:23:34.934Z,99.20
2019-04-06T01:24:34.924Z,99.35
2019-04-06T01:25:34.914Z,99.30
2019-04-06T01:26:34.917Z,99.24
2019-04-06T01:27:34.948Z,98.99
2019-04-06T01:28:34.882Z,99.55
2019-04-06T01:29:34.871Z,98.93
2019-04-06T01:30:34.862Z,99.72
2019-04-06T01:31:34.852Z,99.51
2019-04-06T01:32:34.894Z,99.82
2019-04-06T01:33:34.855Z,98.99
2019-04-06T01:34:34.819Z,98.99
2019-04-06T01:35:34.808Z,98.93
2019-04-06T01:36:34.800Z,98.99
2019-04-06T01:37:34.799Z,99.15
2019-04-06T01:38:34.860Z,99.41
2019-04-06T01:39:34.788Z,98.84
2019-04-06T01:40:34.767Z,98.78
2019-04-06T01:41:34.747Z,98.99
2019-04-06T01:42:34.851Z,98.78
2019-04-06T01:43:34.724Z,99.10
2019-04-06T01:44:34.714Z,98.36
2019-04-06T01:45:34.739Z,98.36
2019-04-06T01:46:34.694Z,98.43
2019-04-06T01:47:34.788Z,98.32
2019-04-06T01:48:34.675Z,98.26
2019-04-06T01:49:34.662Z,98.16
2019-04-06T01:50:34.651Z,98.05
2019-04-06T01:51:34.681Z,97.68
2019-04-06T01:52:34.642Z,98.26
2019-04-06T01:53:34.620Z,98.05
2019-04-06T01:54:34.610Z,98.36
2019-04-06T01:55:34.599Z,98.26
2019-04-06T01:56:34.611Z,98.11
2019-04-06T01:57:34.629Z,97.80
2019-04-06T01:58:34.569Z,98.27
2019-04-06T01:59:34.556Z,97.70
2019-04-06T02:00:34.553Z,97.17
2019-04-06T02:01:34.538Z,97.22
2019-04-06T02:02:34.539Z,97.59
2019-04-06T02:03:34.663Z,97.70
2019-04-06T02:04:34.577Z,97.43
2019-04-06T02:05:34.568Z,98.16
2019-04-06T02:06:34.487Z,98.47
2019-04-06T02:07:34.488Z,98.16
2019-04-06T02:08:34.463Z,98.05
2019-04-06T02:09:34.486Z,98.57
2019-04-06T02:10:34.443Z,98.11
2019-04-06T02:11:34.442Z,98.01
2019-04-06T02:12:34.471Z,98.57
2019-04-06T02:13:34.411Z,98.01
2019-04-06T02:14:34.407Z,98.01
2019-04-06T02:15:34.392Z,98.11
2019-04-06T02:16:34.404Z,98.22
2019-04-06T02:17:34.369Z,97.59
2019-04-06T02:18:34.432Z,97.07
2019-04-06T02:19:34.348Z,97.49
2019-04-06T02:20:34.359Z,97.65
2019-04-06T02:21:34.353Z,97.55
2019-04-06T02:22:34.321Z,97.03
2019-04-06T02:23:34.455Z,96.92
2019-04-06T02:24:34.298Z,97.34
2019-04-06T02:25:34.286Z,97.49
2019-04-06T02:26:34.274Z,97.38
2019-04-06T02:27:34.306Z,97.24
2019-04-06T02:28:34.264Z,97.28
2019-04-06T02:29:34.242Z,96.72
2019-04-06T02:30:34.252Z,96.92
2019-04-06T02:31:34.225Z,96.86
2019-04-06T02:32:34.212Z,96.51
2019-04-06T02:33:34.235Z,96.24
2019-04-06T02:34:34.204Z,96.18
2019-04-06T02:35:34.253Z,96.85
2019-04-06T02:36:34.170Z,97.12
2019-04-06T02:37:34.281Z,97.27
2019-04-06T02:38:34.174Z,97.62
2019-04-06T02:39:34.159Z,97.52
2019-04-06T02:40:34.130Z,97.83
2019-04-06T02:41:34.118Z,98.46
2019-04-06T02:42:34.120Z,98.82
2019-04-06T02:43:34.136Z,98.25
2019-04-06T02:44:34.088Z,98.39
2019-04-06T02:45:34.096Z,98.39
2019-04-06T02:46:34.287Z,98.75
2019-04-06T02:47:34.063Z,98.86
2019-04-06T02:48:34.068Z,99.23
2019-04-06T02:49:34.036Z,99.65
2019-04-06T02:50:34.210Z,99.33
2019-04-06T02:51:34.019Z,99.33
2019-04-06T02:52:34.009Z,99.17
2019-04-06T02:53:34.005Z,99.80
2019-04-06T02:54:34.087Z,99.38
2019-04-06T02:55:33.970Z,99.96
2019-04-06T02:56:45.960Z,99.75
2019-04-06T02:57:34.965Z,99.99
2019-04-06T02:58:33.953Z,99.99
2019-04-06T02:59:33.934Z,99.71
2019-04-06T03:00:33.921Z,99.65
2019-04-06T03:01:33.915Z,98.97
2019-04-06T03:02:33.946Z,99.13
2019-04-06T03:03:33.924Z,99.54
2019-04-06T03:04:33.894Z,99.07
2019-04-06T03:05:34.016Z,98.13
2019-04-06T03:06:33.865Z,98.49
2019-04-06T03:07:33.846Z,99.74
2019-04-06T03:08:33.852Z,99.99
2019-04-06T03:09:33.852Z,99.80
2019-04-06T03:10:33.822Z,99.69
2019-04-06T03:11:33.806Z,99.90
2019-04-06T03:12:33.794Z,99.53
2019-04-06T03:13:33.789Z,99.63
2019-04-06T03:14:33.833Z,99.99
2019-04-06T03:15:33.803Z,99.99
2019-04-06T03:16:33.787Z,99.99
2019-04-06T03:17:33.766Z,99.89
2019-04-06T03:18:33.731Z,99.99
2019-04-06T03:19:33.744Z,99.93
2019-04-06T03:20:33.713Z,99.99
2019-04-06T03:21:33.742Z,99.88
2019-04-06T03:22:33.711Z,99.56
2019-04-06T03:23:33.713Z,99.82
2019-04-06T03:24:33.684Z,99.44
2019-04-06T03:25:33.675Z,99.44
2019-04-06T03:26:33.657Z,99.99
2019-04-06T03:27:33.650Z,99.99
2019-04-06T03:28:33.657Z,99.99
2019-04-06T03:29:33.649Z,99.99
2019-04-06T03:30:33.615Z,99.99
2019-04-06T03:31:33.669Z,99.99
2019-04-06T03:32:33.595Z,99.99
2019-04-06T03:33:33.577Z,99.99
2019-04-06T03:34:33.614Z,99.99
2019-04-06T03:35:33.556Z,99.99
2019-04-06T03:36:33.547Z,99.99
2019-04-06T03:37:33.539Z,99.99
2019-04-06T03:38:33.526Z,99.99
2019-04-06T03:39:33.632Z,99.99
2019-04-06T03:40:33.507Z,99.99
2019-04-06T03:41:33.518Z,99.99
2019-04-06T03:42:33.519Z,99.99
2019-04-06T03:43:33.473Z,99.99
2019-04-06T03:44:33.474Z,99.99
2019-04-06T03:45:33.634Z,99.99
2019-04-06T03:46:33.444Z,99.99
2019-04-06T03:47:33.458Z,99.99
2019-04-06T03:48:33.420Z,99.75
2019-04-06T03:49:33.440Z,99.99
2019-04-06T03:50:33.447Z,99.99
2019-04-06T03:51:33.388Z,99.91
2019-04-06T03:52:33.377Z,99.50
2019-04-06T03:53:33.429Z,99.18
2019-04-06T03:54:33.372Z,98.87
2019-04-06T03:55:33.508Z,98.62
2019-04-06T03:56:33.345Z,98.31
2019-04-06T03:57:33.329Z,98.31
2019-04-06T03:58:33.317Z,98.62
2019-04-06T03:59:33.342Z,98.10
2019-04-06T04:00:33.295Z,98.31
2019-04-06T04:01:33.288Z,97.89
2019-04-06T04:02:33.274Z,98.10
2019-04-06T04:03:33.261Z,98.41
2019-04-06T04:04:33.265Z,98.04
2019-04-06T04:05:33.268Z,98.20
2019-04-06T04:06:33.242Z,97.94
2019-04-06T04:07:33.241Z,98.66
2019-04-06T04:08:33.217Z,98.20
2019-04-06T04:09:33.217Z,98.04
2019-04-06T04:10:33.384Z,97.83
2019-04-06T04:11:33.194Z,98.29
2019-04-06T04:12:33.187Z,97.83
2019-04-06T04:13:33.168Z,98.29
2019-04-06T04:14:33.164Z,98.50
2019-04-06T04:15:33.219Z,99.23
2019-04-06T04:16:33.131Z,99.65
2019-04-06T04:17:33.190Z,99.29
2019-04-06T04:18:33.138Z,99.29
2019-04-06T04:19:33.247Z,98.46
2019-04-06T04:20:33.100Z,98.97
2019-04-06T04:21:33.078Z,98.29
2019-04-06T04:22:34.951Z,98.60
2019-04-06T04:23:33.178Z,98.92
2019-04-06T04:24:33.074Z,98.60
2019-04-06T04:25:33.051Z,98.25
2019-04-06T04:26:33.045Z,98.08
2019-04-06T04:27:33.137Z,98.35
2019-04-06T04:28:33.004Z,98.39
2019-04-06T04:29:32.993Z,98.29
2019-04-06T04:30:34.640Z,98.23
2019-04-06T04:31:32.974Z,97.30
2019-04-06T04:32:32.963Z,97.34
2019-04-06T04:33:32.955Z,98.28
2019-04-06T04:34:32.958Z,98.07
2019-04-06T04:35:32.943Z,97.49
2019-04-06T04:36:32.941Z,96.97
2019-04-06T04:37:33.129Z,97.32
2019-04-06T04:38:32.930Z,97.16
2019-04-06T04:39:32.889Z,96.89
2019-04-06T04:40:32.889Z,96.89
2019-04-06T04:41:32.897Z,97.35
2019-04-06T04:42:32.857Z,97.45
2019-04-06T04:43:32.870Z,99.40
2019-04-06T04:44:32.915Z,99.88
2019-04-06T04:45:32.840Z,99.99
2019-04-06T04:46:33.036Z,99.99
2019-04-06T04:47:32.804Z,99.99
2019-04-06T04:48:32.812Z,99.99
2019-04-06T04:49:32.841Z,99.99
2019-04-06T04:50:32.793Z,99.99
2019-04-06T04:51:32.766Z,99.99
2019-04-06T04:52:32.977Z,99.99
2019-04-06T04:53:32.888Z,99.99
2019-04-06T04:54:32.734Z,99.73
2019-04-06T04:55:32.774Z,99.99
2019-04-06T04:56:32.710Z,99.99
2019-04-06T04:57:40.010Z,99.99
2019-04-06T04:58:33.744Z,99.99
2019-04-06T04:59:32.696Z,99.99
2019-04-06T05:00:32.680Z,99.99
2019-04-06T05:01:32.661Z,99.99
2019-04-06T05:02:32.661Z,99.99
2019-04-06T05:03:32.642Z,99.99
2019-04-06T05:04:32.629Z,99.99
2019-04-06T05:05:32.649Z,99.99
2019-04-06T05:06:32.610Z,99.99
2019-04-06T05:07:32.628Z,99.99
2019-04-06T05:08:32.785Z,99.96
2019-04-06T05:09:32.577Z,99.23
2019-04-06T05:10:32.579Z,99.75
2019-04-06T05:11:32.559Z,99.54
2019-04-06T05:12:32.545Z,99.38
2019-04-06T05:13:32.548Z,98.39
2019-04-06T05:14:32.567Z,98.65
2019-04-06T05:15:32.543Z,98.55
2019-04-06T05:16:32.549Z,98.49
2019-04-06T05:17:32.650Z,98.69
2019-04-06T05:18:32.499Z,98.90
2019-04-06T05:19:32.477Z,99.27
2019-04-06T05:20:32.478Z,99.65
2019-04-06T05:21:32.473Z,99.85
2019-04-06T05:22:32.554Z,99.60
2019-04-06T05:23:32.434Z,99.60
2019-04-06T05:24:32.430Z,99.18
2019-04-06T05:25:32.441Z,99.50
2019-04-06T05:26:37.369Z,98.72
2019-04-06T05:27:33.435Z,98.47
2019-04-06T05:28:32.380Z,98.05
2019-04-06T05:29:33.333Z,97.33
2019-04-06T05:30:32.358Z,97.74
2019-04-06T05:31:32.359Z,97.01
2019-04-06T05:32:32.354Z,96.45
2019-04-06T05:33:32.363Z,95.83
2019-04-06T05:34:32.333Z,95.72
2019-04-06T05:35:32.310Z,95.93
2019-04-06T05:36:32.310Z,95.62
2019-04-06T05:37:32.327Z,95.51
2019-04-06T05:38:32.275Z,95.62
2019-04-06T05:39:32.294Z,96.03
2019-04-06T05:40:32.255Z,95.51
2019-04-06T05:41:32.253Z,95.62
2019-04-06T05:42:32.356Z,95.51
2019-04-06T05:43:32.231Z,95.47
2019-04-06T05:44:32.216Z,95.15
2019-04-06T05:45:32.223Z,94.84
2019-04-06T05:46:32.204Z,94.74
2019-04-06T05:47:32.419Z,94.95
2019-04-06T05:48:32.171Z,94.95
2019-04-06T05:49:32.170Z,94.95
2019-04-06T05:50:32.163Z,95.36
2019-04-06T05:51:32.194Z,95.36
2019-04-06T05:52:32.129Z,95.11
2019-04-06T05:53:32.228Z,95.21
2019-04-06T05:54:32.122Z,94.80
2019-04-06T05:55:32.118Z,94.65
2019-04-06T05:56:32.136Z,94.61
2019-04-06T05:57:32.811Z,93.22
2019-04-06T05:58:32.067Z,92.76
2019-04-06T05:59:32.078Z,92.45
2019-04-06T06:00:32.055Z,91.47
2019-04-06T06:01:32.050Z,90.56
2019-04-06T06:02:32.046Z,90.10
2019-04-06T06:03:32.164Z,88.51
2019-04-06T06:04:32.043Z,87.95
2019-04-06T06:05:32.000Z,86.38
2019-04-06T06:06:31.995Z,83.31
2019-04-06T06:07:31.980Z,81.58
2019-04-06T06:08:32.088Z,78.93
2019-04-06T06:09:32.009Z,78.34
2019-04-06T06:10:32.033Z,76.11
2019-04-06T06:11:31.958Z,77.42
2019-04-06T06:12:31.921Z,75.35
2019-04-06T06:13:31.913Z,75.94
2019-04-06T06:14:31.903Z,73.95
2019-04-06T06:15:31.928Z,75.56
2019-04-06T06:16:31.891Z,73.02
2019-04-06T06:17:32.031Z,74.05
2019-04-06T06:18:31.856Z,72.51
2019-04-06T06:19:31.849Z,72.78
2019-04-06T06:20:31.836Z,73.16
2019-04-06T06:21:32.029Z,73.16
2019-04-06T06:22:31.817Z,73.95
2019-04-06T06:23:31.829Z,72.48
2019-04-06T06:24:34.482Z,70.87
2019-04-06T06:25:31.826Z,70.39
2019-04-06T06:26:31.790Z,70.84
2019-04-06T06:27:31.767Z,71.86
2019-04-06T06:28:31.795Z,73.06
2019-04-06T06:29:31.742Z,70.87
2019-04-06T06:30:31.914Z,72.61
2019-04-06T06:31:31.761Z,73.36
2019-04-06T06:32:31.764Z,72.99
2019-04-06T06:33:31.718Z,71.08
2019-04-06T06:34:31.729Z,69.98
2019-04-06T06:35:31.681Z,71.11
2019-04-06T06:36:31.690Z,71.11
2019-04-06T06:37:31.707Z,69.13
2019-04-06T06:38:31.645Z,69.57
2019-04-06T06:39:31.637Z,69.37
2019-04-06T06:40:31.691Z,69.65
2019-04-06T06:41:31.636Z,68.18
2019-04-06T06:42:31.628Z,69.17
2019-04-06T06:43:31.617Z,66.89
2019-04-06T06:44:31.584Z,67.33
2019-04-06T06:45:31.573Z,67.13
2019-04-06T06:46:31.635Z,68.15
2019-04-06T06:47:31.566Z,68.76
2019-04-06T06:48:31.545Z,69.71
2019-04-06T06:49:31.608Z,70.36
2019-04-06T06:50:31.531Z,70.53
2019-04-06T06:51:31.666Z,71.39
2019-04-06T06:52:31.518Z,71.48
2019-04-06T06:53:31.596Z,72.99
2019-04-06T06:54:31.484Z,74.02
2019-04-06T06:55:31.464Z,73.74
2019-04-06T06:56:31.532Z,75.01
2019-04-06T06:57:31.458Z,73.71
2019-04-06T06:58:31.432Z,72.78
2019-04-06T06:59:31.429Z,72.31
2019-04-06T07:00:31.439Z,70.81
2019-04-06T07:01:31.435Z,68.41
2019-04-06T07:02:31.434Z,69.07
2019-04-06T07:03:31.400Z,66.21
2019-04-06T07:04:31.374Z,67.92
2019-04-06T07:05:31.365Z,64.37
2019-04-06T07:06:31.351Z,67.27
2019-04-06T07:07:31.350Z,67.02
2019-04-06T07:08:31.513Z,69.58
2019-04-06T07:09:31.366Z,70.33
2019-04-06T07:10:31.309Z,71.11
2019-04-06T07:11:31.327Z,71.97
2019-04-06T07:12:31.305Z,71.86
2019-04-06T07:13:31.274Z,71.11
2019-04-06T07:14:31.271Z,72.24
2019-04-06T07:15:31.280Z,70.29
2019-04-06T07:16:31.243Z,71.93
2019-04-06T07:17:31.243Z,72.34
2019-04-06T07:18:31.224Z,70.67
2019-04-06T07:19:31.212Z,70.70
2019-04-06T07:20:31.210Z,71.93
2019-04-06T07:21:31.309Z,69.98
2019-04-06T07:22:31.191Z,72.52
2019-04-06T07:23:31.170Z,69.99
2019-04-06T07:24:31.154Z,68.22
2019-04-06T07:25:31.170Z,67.71
2019-04-06T07:26:31.294Z,67.94
2019-04-06T07:27:31.387Z,68.62
2019-04-06T07:28:37.540Z,69.92
2019-04-06T07:29:32.263Z,70.40
2019-04-06T07:30:31.116Z,69.38
2019-04-06T07:31:31.082Z,68.49
2019-04-06T07:32:31.080Z,70.23
2019-04-06T07:33:31.069Z,70.29
2019-04-06T07:34:31.077Z,67.19
2019-04-06T07:35:31.060Z,67.64
2019-04-06T07:36:31.024Z,69.14
2019-04-06T07:37:31.115Z,66.72
2019-04-06T07:38:31.007Z,65.26
2019-04-06T07:39:30.992Z,64.86
2019-04-06T07:40:30.982Z,67.19
2019-04-06T07:41:30.980Z,67.10
2019-04-06T07:42:31.105Z,66.66
2019-04-06T07:43:30.977Z,68.63
2019-04-06T07:44:30.944Z,70.40
2019-04-06T07:45:30.944Z,71.76
2019-04-06T07:46:31.050Z,73.64
2019-04-06T07:47:30.952Z,70.12
2019-04-06T07:48:31.006Z,68.73
2019-04-06T07:49:30.888Z,68.28
2019-04-06T07:50:31.013Z,71.01
2019-04-06T07:51:30.876Z,69.07
2019-04-06T07:52:30.981Z,67.54
2019-04-06T07:53:30.883Z,68.42
2019-04-06T07:54:30.831Z,67.51
2019-04-06T07:55:30.823Z,67.10
2019-04-06T07:56:30.810Z,66.75
2019-04-06T07:57:30.814Z,69.54
2019-04-06T07:58:30.820Z,70.53
2019-04-06T07:59:30.796Z,71.45
2019-04-06T08:00:30.795Z,69.92
2019-04-06T08:01:30.763Z,69.79
2019-04-06T08:02:30.759Z,69.89
2019-04-06T08:03:30.737Z,70.64
2019-04-06T08:04:30.725Z,70.33
2019-04-06T08:05:30.741Z,69.75
2019-04-06T08:06:30.730Z,68.80
2019-04-06T08:07:30.708Z,67.00
2019-04-06T08:08:30.681Z,68.33
2019-04-06T08:09:30.673Z,66.25
2019-04-06T08:10:30.672Z,66.49
2019-04-06T08:11:30.700Z,67.45
2019-04-06T08:12:31.091Z,66.74
2019-04-06T08:13:30.653Z,62.51
2019-04-06T08:14:30.683Z,62.96
2019-04-06T08:15:30.936Z,61.74
2019-04-06T08:16:30.621Z,62.90
2019-04-06T08:17:30.692Z,62.43
2019-04-06T08:18:30.624Z,64.63
2019-04-06T08:19:30.760Z,64.57
2019-04-06T08:20:30.580Z,65.46
2019-04-06T08:21:30.568Z,64.14
2019-04-06T08:22:30.580Z,64.12
2019-04-06T08:23:30.720Z,64.28
2019-04-06T08:24:30.511Z,65.56
2019-04-06T08:25:30.498Z,66.24
2019-04-06T08:26:30.689Z,65.12
2019-04-06T08:27:30.487Z,64.01
2019-04-06T08:28:30.502Z,63.94
2019-04-06T08:29:30.478Z,61.79
2019-04-06T08:30:30.448Z,62.02
2019-04-06T08:31:30.682Z,64.05
2019-04-06T08:32:30.424Z,65.20
2019-04-06T08:33:30.430Z,65.45
2019-04-06T08:34:30.400Z,64.43
2019-04-06T08:35:30.394Z,64.90
2019-04-06T08:36:30.400Z,63.00
2019-04-06T08:37:30.458Z,64.12
2019-04-06T08:38:30.432Z,64.40
2019-04-06T08:39:30.350Z,62.90
2019-04-06T08:40:31.052Z,64.43
2019-04-06T08:41:30.342Z,64.06
2019-04-06T08:42:30.343Z,63.83
2019-04-06T08:43:30.318Z,62.92
2019-04-06T08:44:30.294Z,65.16
2019-04-06T08:45:30.295Z,64.41
2019-04-06T08:46:30.348Z,64.35
2019-04-06T08:47:30.395Z,65.51
2019-04-06T08:48:30.454Z,63.00
2019-04-06T08:49:30.420Z,62.76
2019-04-06T08:50:30.314Z,62.02
2019-04-06T08:51:30.240Z,60.94
2019-04-06T08:52:30.225Z,61.78
2019-04-06T08:53:30.220Z,61.51
2019-04-06T08:54:30.310Z,62.72
2019-04-06T08:55:30.216Z,64.04
2019-04-06T08:56:30.187Z,63.00
2019-04-06T08:57:30.433Z,61.95
2019-04-06T08:58:30.171Z,62.36
2019-04-06T08:59:30.391Z,60.50
2019-04-06T09:00:30.185Z,62.16
2019-04-06T09:01:30.110Z,60.74
2019-04-06T09:02:30.176Z,61.34
2019-04-06T09:03:30.179Z,62.23
2019-04-06T09:04:30.126Z,60.58
2019-04-06T09:05:30.129Z,61.39
2019-04-06T09:06:30.068Z,58.85
2019-04-06T09:07:30.283Z,60.07
2019-04-06T09:08:30.083Z,62.54
2019-04-06T09:09:30.029Z,62.26
2019-04-06T09:10:30.051Z,57.04
2019-04-06T09:11:30.025Z,61.68
2019-04-06T09:12:30.147Z,57.22
2019-04-06T09:13:30.004Z,58.76
2019-04-06T09:14:29.987Z,61.20
2019-04-06T09:15:30.032Z,58.87
2019-04-06T09:16:30.005Z,58.42
2019-04-06T09:17:30.050Z,59.94
2019-04-06T09:18:29.957Z,59.43
2019-04-06T09:19:29.921Z,60.14
2019-04-06T09:20:29.907Z,62.57
2019-04-06T09:21:29.946Z,61.33
2019-04-06T09:22:29.902Z,59.89
2019-04-06T09:23:30.218Z,63.71
2019-04-06T09:24:30.100Z,64.76
2019-04-06T09:25:29.858Z,65.57
2019-04-06T09:26:29.986Z,63.49
2019-04-06T09:27:29.825Z,64.20
2019-04-06T09:28:29.825Z,64.54
2019-04-06T09:29:29.806Z,64.57
2019-04-06T09:30:29.809Z,66.00
2019-04-06T09:31:29.799Z,65.42
2019-04-06T09:32:29.770Z,67.93
2019-04-06T09:33:29.772Z,66.16
2019-04-06T09:34:31.183Z,67.93
2019-04-06T09:35:29.737Z,66.71
2019-04-06T09:36:29.726Z,66.17
2019-04-06T09:37:30.048Z,67.83
2019-04-06T09:38:29.715Z,66.69
2019-04-06T09:39:29.693Z,64.93
2019-04-06T09:40:29.682Z,63.00
2019-04-06T09:41:29.669Z,64.49
2019-04-06T09:42:29.761Z,64.23
2019-04-06T09:43:29.804Z,61.08
2019-04-06T09:44:29.640Z,63.01
2019-04-06T09:45:29.907Z,60.98
2019-04-06T09:46:29.633Z,62.81
2019-04-06T09:47:29.620Z,61.63
2019-04-06T09:48:29.619Z,64.40
2019-04-06T09:49:29.586Z,63.01
2019-04-06T09:50:29.583Z,64.00
2019-04-06T09:51:29.561Z,63.66
2019-04-06T09:52:29.552Z,60.72
2019-04-06T09:53:29.709Z,61.10
2019-04-06T09:54:29.547Z,62.01
2019-04-06T09:55:29.520Z,60.43
2019-04-06T09:56:29.518Z,62.35
2019-04-06T09:57:29.498Z,62.26
2019-04-06T09:58:29.530Z,61.41
2019-04-06T09:59:35.968Z,61.21
2019-04-06T10:00:30.483Z,60.13
2019-04-06T10:01:37.940Z,60.19
2019-04-06T10:02:30.461Z,61.66
2019-04-06T10:03:29.692Z,63.98
2019-04-06T10:04:29.456Z,64.25
2019-04-06T10:05:29.764Z,68.59
2019-04-06T10:06:32.158Z,65.99
2019-04-06T10:07:29.473Z,64.53
2019-04-06T10:08:29.385Z,63.93
2019-04-06T10:09:29.399Z,60.52
2019-04-06T10:10:29.483Z,63.73
2019-04-06T10:11:29.359Z,60.36
2019-04-06T10:12:29.341Z,60.74
2019-04-06T10:13:29.333Z,61.79
2019-04-06T10:14:29.548Z,61.27
2019-04-06T10:15:29.488Z,57.18
2019-04-06T10:16:29.343Z,59.73
2019-04-06T10:17:29.302Z,57.74
2019-04-06T10:18:29.274Z,60.84
2019-04-06T10:19:29.282Z,56.60
2019-04-06T10:20:29.377Z,58.69
2019-04-06T10:21:29.278Z,55.74
2019-04-06T10:22:29.503Z,57.45
2019-04-06T10:23:29.231Z,56.09
2019-04-06T10:24:29.585Z,54.21
2019-04-06T10:25:29.198Z,53.14
2019-04-06T10:26:29.199Z,56.05
2019-04-06T10:27:29.505Z,56.18
2019-04-06T10:28:29.171Z,61.37
2019-04-06T10:29:29.173Z,59.14
2019-04-06T10:30:29.144Z,53.80
2019-04-06T10:31:29.439Z,55.87
2019-04-06T10:32:29.170Z,57.03
2019-04-06T10:33:29.169Z,56.97
2019-04-06T10:34:29.182Z,56.19
2019-04-06T10:35:29.120Z,52.92
2019-04-06T10:36:31.399Z,53.80
2019-04-06T10:37:29.300Z,54.05
2019-04-06T10:38:29.083Z,52.39
2019-04-06T10:39:29.094Z,52.87
2019-04-06T10:40:29.043Z,55.04
2019-04-06T10:41:29.031Z,56.68
2019-04-06T10:42:29.608Z,59.40
2019-04-06T10:43:29.313Z,54.41
2019-04-06T10:44:29.140Z,59.33
2019-04-06T10:45:29.010Z,56.17
2019-04-06T10:46:28.985Z,55.57
2019-04-06T10:47:28.971Z,57.89
2019-04-06T10:48:29.200Z,55.06
2019-04-06T10:49:28.958Z,57.93
2019-04-06T10:50:28.936Z,59.06
2019-04-06T10:51:28.946Z,53.77
2019-04-06T10:52:28.965Z,52.55
2019-04-06T10:53:28.901Z,57.87
2019-04-06T10:54:28.913Z,54.33
2019-04-06T10:55:28.878Z,52.69
2019-04-06T10:56:28.871Z,51.61
2019-04-06T10:57:29.038Z,57.65
2019-04-06T10:58:28.919Z,57.39
2019-04-06T10:59:28.836Z,53.80
2019-04-06T11:00:28.974Z,58.41
2019-04-06T11:01:29.012Z,56.54
2019-04-06T11:02:29.095Z,52.97
2019-04-06T11:03:28.805Z,57.65
2019-04-06T11:04:28.788Z,57.58
2019-04-06T11:05:28.791Z,59.60
2019-04-06T11:06:28.763Z,55.62
2019-04-06T11:07:29.078Z,56.12
2019-04-06T11:08:28.984Z,56.47
2019-04-06T11:09:28.731Z,55.87
2019-04-06T11:10:28.750Z,56.70
2019-04-06T11:11:28.744Z,57.20
2019-04-06T11:12:28.704Z,58.18
2019-04-06T11:13:28.712Z,55.82
2019-04-06T11:14:28.955Z,60.81
2019-04-06T11:15:28.690Z,56.55
2019-04-06T11:16:28.717Z,57.83
2019-04-06T11:17:28.656Z,55.74
2019-04-06T11:18:28.639Z,62.29
2019-04-06T11:19:28.946Z,58.71
2019-04-06T11:20:28.638Z,57.28
2019-04-06T11:21:28.625Z,59.34
2019-04-06T11:22:28.853Z,57.50
2019-04-06T11:23:28.603Z,54.96
2019-04-06T11:24:28.588Z,57.24
2019-04-06T11:25:28.816Z,55.66
2019-04-06T11:26:28.706Z,56.02
2019-04-06T11:27:28.779Z,55.97
2019-04-06T11:28:28.532Z,60.41
2019-04-06T11:29:28.532Z,57.21
2019-04-06T11:30:28.539Z,57.41
2019-04-06T11:31:28.505Z,59.30
2019-04-06T11:32:28.546Z,58.34
2019-04-06T11:33:28.497Z,58.54
2019-04-06T11:34:28.516Z,61.13
2019-04-06T11:35:28.477Z,62.59
2019-04-06T11:36:28.471Z,62.43
2019-04-06T11:37:28.871Z,57.96
2019-04-06T11:38:28.427Z,59.42
2019-04-06T11:39:28.491Z,57.03
2019-04-06T11:40:28.444Z,56.72
2019-04-06T11:41:28.400Z,59.67
2019-04-06T11:42:28.396Z,63.40
2019-04-06T11:43:28.593Z,59.55
2019-04-06T11:44:28.375Z,58.36
2019-04-06T11:45:28.422Z,64.02
2019-04-06T11:46:28.346Z,59.66
2019-04-06T11:47:28.347Z,55.96
2019-04-06T11:48:28.437Z,55.29
2019-04-06T11:49:28.311Z,58.21
2019-04-06T11:50:28.461Z,56.49
2019-04-06T11:51:28.295Z,57.78
2019-04-06T11:52:28.307Z,56.09
2019-04-06T11:53:28.274Z,57.96
2019-04-06T11:54:28.339Z,60.72
2019-04-06T11:55:28.318Z,56.44
2019-04-06T11:56:28.239Z,56.41
2019-04-06T11:57:28.531Z,58.35
2019-04-06T11:58:28.216Z,55.79
2019-04-06T11:59:28.316Z,56.95
2019-04-06T12:00:28.236Z,55.97
2019-04-06T12:01:28.184Z,58.26
2019-04-06T12:02:28.174Z,60.68
2019-04-06T12:03:28.162Z,57.58
2019-04-06T12:04:28.198Z,59.40
2019-04-06T12:05:28.272Z,61.85
2019-04-06T12:06:28.153Z,61.98
2019-04-06T12:07:28.258Z,60.93
2019-04-06T12:08:28.114Z,59.23
2019-04-06T12:09:28.228Z,62.70
2019-04-06T12:10:28.094Z,65.67
2019-04-06T12:11:28.187Z,60.93
2019-04-06T12:12:28.333Z,59.64
2019-04-06T12:13:28.060Z,62.10
2019-04-06T12:14:28.060Z,61.01
2019-04-06T12:15:28.099Z,60.20
2019-04-06T12:16:28.063Z,60.63
2019-04-06T12:17:28.016Z,62.33
2019-04-06T12:18:28.302Z,63.51
2019-04-06T12:19:27.993Z,60.35
2019-04-06T12:20:28.207Z,61.83
2019-04-06T12:21:28.281Z,59.36
2019-04-06T12:22:28.369Z,60.50
2019-04-06T12:23:27.981Z,63.95
2019-04-06T12:24:27.963Z,63.47
2019-04-06T12:25:27.967Z,61.92
2019-04-06T12:26:27.941Z,60.00
2019-04-06T12:27:28.002Z,60.61
2019-04-06T12:28:27.901Z,60.43
2019-04-06T12:29:27.894Z,62.26
2019-04-06T12:30:37.267Z,63.67
2019-04-06T12:31:28.992Z,62.26
2019-04-06T12:32:27.976Z,62.86
2019-04-06T12:33:27.861Z,62.49
2019-04-06T12:34:27.902Z,62.79
2019-04-06T12:35:28.273Z,63.67
2019-04-06T12:36:27.853Z,65.90
2019-04-06T12:37:27.839Z,64.38
2019-04-06T12:38:27.865Z,62.12
2019-04-06T12:39:27.786Z,64.62
2019-04-06T12:40:27.780Z,62.37
2019-04-06T12:41:27.773Z,62.37
2019-04-06T12:42:27.762Z,61.76
2019-04-06T12:43:27.928Z,59.34
2019-04-06T12:44:27.815Z,62.98
2019-04-06T12:45:27.750Z,62.16
2019-04-06T12:46:28.077Z,59.54
2019-04-06T12:47:27.735Z,59.74
2019-04-06T12:48:27.693Z,60.55
2019-04-06T12:49:27.766Z,61.03
2019-04-06T12:50:27.667Z,60.82
2019-04-06T12:51:27.663Z,60.55
2019-04-06T12:52:27.640Z,62.67